This is the latest recevied weather packets stored in our database for station/object EA1JVZ-1. If no packets are shown the sender has not sent any weather packets the latest 10 day(s).
| Time | Temp. | Humidity | Pressure | Rain* | Wind** | Luminosity | Snow |
|---|---|---|---|---|---|---|---|
| 1777309553 | 27.78° C | 37% | 1024.8 hPa | - | - | - | - |
| 1777308653 | 27.22° C | 39% | 1025 hPa | - | - | - | - |
| 1777307752 | 28.33° C | 38% | 1025 hPa | - | - | - | - |
| 1777306852 | 28.33° C | 39% | 1025 hPa | - | - | - | - |
| 1777305952 | 27.78° C | 39% | 1025 hPa | - | - | - | - |
| 1777305052 | 30° C | 38% | 1025 hPa | - | - | - | - |
| 1777304153 | 30.56° C | 39% | 1025 hPa | - | - | - | - |
| 1777303252 | 32.78° C | 37% | 1025.1 hPa | - | - | - | - |
| 1777302351 | 35.56° C | 35% | 1025.2 hPa | - | - | - | - |
| 1777301451 | 36.11° C | 35% | 1025.2 hPa | - | - | - | - |
| 1777300552 | 35.56° C | 35% | 1025.5 hPa | - | - | - | - |
| 1777299651 | 36.11° C | 35% | 1025.7 hPa | - | - | - | - |
| 1777298751 | 35.56° C | 35% | 1025.9 hPa | - | - | - | - |
| 1777297850 | 34.44° C | 36% | 1026 hPa | - | - | - | - |
| 1777296950 | 35° C | 36% | 1026.3 hPa | - | - | - | - |
| 1777296050 | 35.56° C | 35% | 1026.4 hPa | - | - | - | - |
| 1777295150 | 33.33° C | 37% | 1026.5 hPa | - | - | - | - |
| 1777294250 | 32.78° C | 37% | 1026.7 hPa | - | - | - | - |
| 1777293349 | 32.22° C | 37% | 1027 hPa | - | - | - | - |
| 1777292449 | 32.22° C | 38% | 1027.1 hPa | - | - | - | - |
| 1777291549 | 30° C | 38% | 1027.4 hPa | - | - | - | - |
| 1777290649 | 29.44° C | 39% | 1027.5 hPa | - | - | - | - |
| 1777289749 | 26.67° C | 40% | 1027.6 hPa | - | - | - | - |
| 1777288847 | 24.44° C | 41% | 1027.9 hPa | - | - | - | - |
| 1777287947 | 21.67° C | 44% | 1028 hPa | - | - | - | - |
* Rain since midnight (hover to see other rain measurements)
** Current wind speed in m/s (hover to see current wind gust speed)